sensor_id;sensor_type;location;lat;lon;timestamp;temperature;humidity
8463;DHT22;4268;52.506;13.462;2023-04-12T00:00:32;6.00;99.90
8463;DHT22;4268;52.506;13.462;2023-04-12T00:02:58;5.90;99.90
8463;DHT22;4268;52.506;13.462;2023-04-12T00:05:27;5.90;99.90
8463;DHT22;4268;52.506;13.462;2023-04-12T00:07:53;5.90;99.90
8463;DHT22;4268;52.506;13.462;2023-04-12T00:10:20;5.90;99.90
8463;DHT22;4268;52.506;13.462;2023-04-12T00:12:46;5.90;99.90
8463;DHT22;4268;52.506;13.462;2023-04-12T00:15:12;5.80;99.90
8463;DHT22;4268;52.506;13.462;2023-04-12T00:17:38;5.80;99.90
8463;DHT22;4268;52.506;13.462;2023-04-12T00:20:05;5.80;99.90
8463;DHT22;4268;52.506;13.462;2023-04-12T00:22:36;5.70;99.90
8463;DHT22;4268;52.506;13.462;2023-04-12T00:25:01;5.70;99.90
8463;DHT22;4268;52.506;13.462;2023-04-12T00:27:27;5.70;99.90
8463;DHT22;4268;52.506;13.462;2023-04-12T00:29:52;5.70;99.90
8463;DHT22;4268;52.506;13.462;2023-04-12T00:32:18;5.70;99.90
8463;DHT22;4268;52.506;13.462;2023-04-12T00:34:43;5.70;99.90
8463;DHT22;4268;52.506;13.462;2023-04-12T00:37:09;5.60;99.90
8463;DHT22;4268;52.506;13.462;2023-04-12T00:39:35;5.60;99.90
8463;DHT22;4268;52.506;13.462;2023-04-12T00:42:04;5.60;99.90
8463;DHT22;4268;52.506;13.462;2023-04-12T00:44:30;5.50;99.90
8463;DHT22;4268;52.506;13.462;2023-04-12T00:46:57;5.50;99.90
8463;DHT22;4268;52.506;13.462;2023-04-12T00:49:23;5.50;99.90
8463;DHT22;4268;52.506;13.462;2023-04-12T00:51:49;5.40;99.90
8463;DHT22;4268;52.506;13.462;2023-04-12T00:54:15;5.40;99.90
8463;DHT22;4268;52.506;13.462;2023-04-12T00:56:44;5.40;99.90
8463;DHT22;4268;52.506;13.462;2023-04-12T00:59:11;5.40;99.90
8463;DHT22;4268;52.506;13.462;2023-04-12T01:01:36;5.40;99.90
8463;DHT22;4268;52.506;13.462;2023-04-12T01:04:05;5.40;99.90
8463;DHT22;4268;52.506;13.462;2023-04-12T01:06:53;5.40;99.90
8463;DHT22;4268;52.506;13.462;2023-04-12T01:17:37;5.30;99.90
8463;DHT22;4268;52.506;13.462;2023-04-12T01:20:10;5.20;99.90
8463;DHT22;4268;52.506;13.462;2023-04-12T01:22:58;5.30;99.90
8463;DHT22;4268;52.506;13.462;2023-04-12T01:25:52;5.20;99.90
8463;DHT22;4268;52.506;13.462;2023-04-12T01:28:31;5.20;99.90
8463;DHT22;4268;52.506;13.462;2023-04-12T01:31:00;5.20;99.90
8463;DHT22;4268;52.506;13.462;2023-04-12T01:33:27;5.20;99.90
8463;DHT22;4268;52.506;13.462;2023-04-12T01:35:58;5.10;99.90
8463;DHT22;4268;52.506;13.462;2023-04-12T01:38:24;5.10;99.90
8463;DHT22;4268;52.506;13.462;2023-04-12T01:40:50;5.20;99.90
8463;DHT22;4268;52.506;13.462;2023-04-12T01:43:16;5.10;99.90
8463;DHT22;4268;52.506;13.462;2023-04-12T01:45:41;5.00;99.90
8463;DHT22;4268;52.506;13.462;2023-04-12T01:48:08;5.00;99.90
8463;DHT22;4268;52.506;13.462;2023-04-12T01:50:50;5.00;99.90
8463;DHT22;4268;52.506;13.462;2023-04-12T01:53:37;5.00;99.90
8463;DHT22;4268;52.506;13.462;2023-04-12T01:56:08;4.90;99.90
8463;DHT22;4268;52.506;13.462;2023-04-12T01:58:36;4.90;99.90
8463;DHT22;4268;52.506;13.462;2023-04-12T02:01:02;4.90;99.90
8463;DHT22;4268;52.506;13.462;2023-04-12T02:03:28;4.80;99.90
8463;DHT22;4268;52.506;13.462;2023-04-12T02:05:56;4.70;99.90
8463;DHT22;4268;52.506;13.462;2023-04-12T02:08:24;4.70;99.90
8463;DHT22;4268;52.506;13.462;2023-04-12T02:10:49;4.70;99.90
8463;DHT22;4268;52.506;13.462;2023-04-12T02:13:15;4.60;99.90
8463;DHT22;4268;52.506;13.462;2023-04-12T02:15:42;4.60;99.90
8463;DHT22;4268;52.506;13.462;2023-04-12T02:18:08;4.50;99.90
8463;DHT22;4268;52.506;13.462;2023-04-12T02:20:34;4.60;99.90
8463;DHT22;4268;52.506;13.462;2023-04-12T02:23:00;4.50;99.90
8463;DHT22;4268;52.506;13.462;2023-04-12T02:25:25;4.40;99.90
8463;DHT22;4268;52.506;13.462;2023-04-12T02:27:51;4.40;99.90
8463;DHT22;4268;52.506;13.462;2023-04-12T02:30:17;4.40;99.90
8463;DHT22;4268;52.506;13.462;2023-04-12T02:32:44;4.40;99.90
8463;DHT22;4268;52.506;13.462;2023-04-12T02:35:14;4.40;99.90
8463;DHT22;4268;52.506;13.462;2023-04-12T02:37:44;4.30;99.90
8463;DHT22;4268;52.506;13.462;2023-04-12T02:40:13;4.30;99.90
8463;DHT22;4268;52.506;13.462;2023-04-12T02:42:43;4.30;99.90
8463;DHT22;4268;52.506;13.462;2023-04-12T02:45:10;4.30;99.90
8463;DHT22;4268;52.506;13.462;2023-04-12T02:47:35;4.20;99.90
8463;DHT22;4268;52.506;13.462;2023-04-12T02:50:02;4.20;99.90
8463;DHT22;4268;52.506;13.462;2023-04-12T02:52:28;4.20;99.90
8463;DHT22;4268;52.506;13.462;2023-04-12T02:54:54;4.20;99.90
8463;DHT22;4268;52.506;13.462;2023-04-12T02:57:20;4.20;99.90
8463;DHT22;4268;52.506;13.462;2023-04-12T02:59:46;4.20;99.90
8463;DHT22;4268;52.506;13.462;2023-04-12T03:02:13;4.10;99.90
8463;DHT22;4268;52.506;13.462;2023-04-12T03:04:38;4.10;99.90
8463;DHT22;4268;52.506;13.462;2023-04-12T03:07:04;4.10;99.90
8463;DHT22;4268;52.506;13.462;2023-04-12T03:09:31;4.10;99.90
8463;DHT22;4268;52.506;13.462;2023-04-12T03:11:56;4.10;99.90
8463;DHT22;4268;52.506;13.462;2023-04-12T03:14:22;4.20;99.90
8463;DHT22;4268;52.506;13.462;2023-04-12T03:16:47;4.10;99.90
8463;DHT22;4268;52.506;13.462;2023-04-12T03:19:15;4.10;99.90
8463;DHT22;4268;52.506;13.462;2023-04-12T03:21:41;4.00;99.90
8463;DHT22;4268;52.506;13.462;2023-04-12T03:24:06;3.90;99.90
8463;DHT22;4268;52.506;13.462;2023-04-12T03:26:32;4.00;99.90
8463;DHT22;4268;52.506;13.462;2023-04-12T03:29:02;3.90;99.90
8463;DHT22;4268;52.506;13.462;2023-04-12T03:31:33;3.90;99.90
8463;DHT22;4268;52.506;13.462;2023-04-12T03:33:59;3.80;99.90
8463;DHT22;4268;52.506;13.462;2023-04-12T03:36:25;3.70;99.90
8463;DHT22;4268;52.506;13.462;2023-04-12T03:38:51;3.70;99.90
8463;DHT22;4268;52.506;13.462;2023-04-12T03:41:17;3.70;99.90
8463;DHT22;4268;52.506;13.462;2023-04-12T03:43:42;3.80;99.90
8463;DHT22;4268;52.506;13.462;2023-04-12T03:46:08;3.80;99.90
8463;DHT22;4268;52.506;13.462;2023-04-12T03:48:33;3.80;99.90
8463;DHT22;4268;52.506;13.462;2023-04-12T03:51:00;3.70;99.90
8463;DHT22;4268;52.506;13.462;2023-04-12T03:53:33;3.70;99.90
8463;DHT22;4268;52.506;13.462;2023-04-12T03:55:59;3.80;99.90
8463;DHT22;4268;52.506;13.462;2023-04-12T03:58:24;3.80;99.90
8463;DHT22;4268;52.506;13.462;2023-04-12T04:00:50;3.70;99.90
8463;DHT22;4268;52.506;13.462;2023-04-12T04:03:16;3.80;99.90
8463;DHT22;4268;52.506;13.462;2023-04-12T04:05:42;3.80;99.90
8463;DHT22;4268;52.506;13.462;2023-04-12T04:08:08;3.80;99.90
8463;DHT22;4268;52.506;13.462;2023-04-12T04:10:34;3.70;99.90
8463;DHT22;4268;52.506;13.462;2023-04-12T04:13:00;3.80;99.90
8463;DHT22;4268;52.506;13.462;2023-04-12T04:15:26;3.70;99.90
8463;DHT22;4268;52.506;13.462;2023-04-12T04:17:52;3.70;99.90
8463;DHT22;4268;52.506;13.462;2023-04-12T04:20:18;3.60;99.90
8463;DHT22;4268;52.506;13.462;2023-04-12T04:22:47;3.60;99.90
8463;DHT22;4268;52.506;13.462;2023-04-12T04:25:14;3.60;99.90
8463;DHT22;4268;52.506;13.462;2023-04-12T04:27:43;3.60;99.90
8463;DHT22;4268;52.506;13.462;2023-04-12T04:30:11;3.60;99.90
8463;DHT22;4268;52.506;13.462;2023-04-12T04:32:37;3.60;99.90
8463;DHT22;4268;52.506;13.462;2023-04-12T04:35:04;3.60;99.90
8463;DHT22;4268;52.506;13.462;2023-04-12T04:37:30;3.60;99.90
8463;DHT22;4268;52.506;13.462;2023-04-12T04:39:55;3.60;99.90
8463;DHT22;4268;52.506;13.462;2023-04-12T04:42:22;3.60;99.90
8463;DHT22;4268;52.506;13.462;2023-04-12T04:44:48;3.60;99.90
8463;DHT22;4268;52.506;13.462;2023-04-12T04:47:15;3.70;99.90
8463;DHT22;4268;52.506;13.462;2023-04-12T04:49:43;3.60;99.90
8463;DHT22;4268;52.506;13.462;2023-04-12T04:52:08;3.60;99.90
8463;DHT22;4268;52.506;13.462;2023-04-12T04:54:34;3.60;99.90
8463;DHT22;4268;52.506;13.462;2023-04-12T04:57:00;3.60;99.90
8463;DHT22;4268;52.506;13.462;2023-04-12T04:59:26;3.60;99.90
8463;DHT22;4268;52.506;13.462;2023-04-12T05:01:51;3.60;99.90
8463;DHT22;4268;52.506;13.462;2023-04-12T05:04:17;3.60;99.90
8463;DHT22;4268;52.506;13.462;2023-04-12T05:06:42;3.60;99.90
8463;DHT22;4268;52.506;13.462;2023-04-12T05:09:08;3.60;99.90
8463;DHT22;4268;52.506;13.462;2023-04-12T05:11:33;3.60;99.90
8463;DHT22;4268;52.506;13.462;2023-04-12T05:13:59;3.60;99.90
8463;DHT22;4268;52.506;13.462;2023-04-12T05:16:24;3.70;99.90
8463;DHT22;4268;52.506;13.462;2023-04-12T05:18:50;3.70;99.90
8463;DHT22;4268;52.506;13.462;2023-04-12T05:21:15;3.70;99.90
8463;DHT22;4268;52.506;13.462;2023-04-12T05:23:43;3.80;99.90
8463;DHT22;4268;52.506;13.462;2023-04-12T05:26:08;3.80;99.90
8463;DHT22;4268;52.506;13.462;2023-04-12T05:28:34;3.80;99.90
8463;DHT22;4268;52.506;13.462;2023-04-12T05:31:00;3.90;99.90
8463;DHT22;4268;52.506;13.462;2023-04-12T05:33:26;3.90;99.90
8463;DHT22;4268;52.506;13.462;2023-04-12T05:35:51;4.00;99.90
8463;DHT22;4268;52.506;13.462;2023-04-12T05:38:17;4.00;99.90
8463;DHT22;4268;52.506;13.462;2023-04-12T05:40:42;4.10;99.90
8463;DHT22;4268;52.506;13.462;2023-04-12T05:43:11;4.20;99.90
8463;DHT22;4268;52.506;13.462;2023-04-12T05:45:40;4.20;99.90
8463;DHT22;4268;52.506;13.462;2023-04-12T05:48:06;4.30;99.90
8463;DHT22;4268;52.506;13.462;2023-04-12T05:50:31;4.30;99.90
8463;DHT22;4268;52.506;13.462;2023-04-12T05:52:59;4.40;99.90
8463;DHT22;4268;52.506;13.462;2023-04-12T05:55:25;4.50;99.90
8463;DHT22;4268;52.506;13.462;2023-04-12T05:57:50;4.60;99.90
8463;DHT22;4268;52.506;13.462;2023-04-12T06:00:16;4.60;99.90
8463;DHT22;4268;52.506;13.462;2023-04-12T06:02:44;4.70;99.90
8463;DHT22;4268;52.506;13.462;2023-04-12T06:05:10;4.80;99.90
8463;DHT22;4268;52.506;13.462;2023-04-12T06:07:37;4.90;99.90
8463;DHT22;4268;52.506;13.462;2023-04-12T06:10:04;4.90;99.90
8463;DHT22;4268;52.506;13.462;2023-04-12T06:12:29;5.00;99.90
8463;DHT22;4268;52.506;13.462;2023-04-12T06:14:55;5.10;99.90
8463;DHT22;4268;52.506;13.462;2023-04-12T06:17:20;5.20;99.90
8463;DHT22;4268;52.506;13.462;2023-04-12T06:19:46;5.30;99.90
8463;DHT22;4268;52.506;13.462;2023-04-12T06:22:12;5.40;99.90
8463;DHT22;4268;52.506;13.462;2023-04-12T06:24:37;5.50;99.90
8463;DHT22;4268;52.506;13.462;2023-04-12T06:27:03;5.70;99.90
8463;DHT22;4268;52.506;13.462;2023-04-12T06:29:28;6.40;99.90
8463;DHT22;4268;52.506;13.462;2023-04-12T06:31:54;8.00;99.90
8463;DHT22;4268;52.506;13.462;2023-04-12T06:34:19;9.80;99.90
8463;DHT22;4268;52.506;13.462;2023-04-12T06:36:45;11.40;99.90
8463;DHT22;4268;52.506;13.462;2023-04-12T06:39:12;13.00;99.90
8463;DHT22;4268;52.506;13.462;2023-04-12T06:41:38;14.40;96.60
8463;DHT22;4268;52.506;13.462;2023-04-12T06:44:04;15.50;93.90
8463;DHT22;4268;52.506;13.462;2023-04-12T06:46:29;16.50;91.40
8463;DHT22;4268;52.506;13.462;2023-04-12T06:48:55;17.10;88.20
8463;DHT22;4268;52.506;13.462;2023-04-12T06:51:21;17.60;85.40
8463;DHT22;4268;52.506;13.462;2023-04-12T06:53:46;18.00;82.70
8463;DHT22;4268;52.506;13.462;2023-04-12T06:56:12;18.30;80.20
8463;DHT22;4268;52.506;13.462;2023-04-12T06:58:37;18.30;78.40
8463;DHT22;4268;52.506;13.462;2023-04-12T07:01:07;18.60;78.50
8463;DHT22;4268;52.506;13.462;2023-04-12T07:03:33;18.90;76.70
8463;DHT22;4268;52.506;13.462;2023-04-12T07:05:59;19.30;75.30
8463;DHT22;4268;52.506;13.462;2023-04-12T07:08:33;19.70;71.90
8463;DHT22;4268;52.506;13.462;2023-04-12T07:10:59;19.90;70.70
8463;DHT22;4268;52.506;13.462;2023-04-12T07:13:24;20.00;70.00
8463;DHT22;4268;52.506;13.462;2023-04-12T07:15:51;20.20;69.10
8463;DHT22;4268;52.506;13.462;2023-04-12T07:18:17;20.40;67.30
8463;DHT22;4268;52.506;13.462;2023-04-12T07:20:43;20.50;67.30
8463;DHT22;4268;52.506;13.462;2023-04-12T07:23:10;20.80;67.10
8463;DHT22;4268;52.506;13.462;2023-04-12T07:25:38;20.70;65.60
8463;DHT22;4268;52.506;13.462;2023-04-12T07:28:04;20.40;65.20
8463;DHT22;4268;52.506;13.462;2023-04-12T07:30:30;20.20;65.00
8463;DHT22;4268;52.506;13.462;2023-04-12T07:32:56;20.60;64.60
8463;DHT22;4268;52.506;13.462;2023-04-12T07:35:21;20.70;63.30
8463;DHT22;4268;52.506;13.462;2023-04-12T07:37:47;20.60;63.20
8463;DHT22;4268;52.506;13.462;2023-04-12T07:40:12;21.10;62.80
8463;DHT22;4268;52.506;13.462;2023-04-12T07:42:38;20.90;62.00
8463;DHT22;4268;52.506;13.462;2023-04-12T07:45:04;21.10;61.30
8463;DHT22;4268;52.506;13.462;2023-04-12T07:47:30;21.40;60.10
8463;DHT22;4268;52.506;13.462;2023-04-12T07:49:56;20.90;60.60
8463;DHT22;4268;52.506;13.462;2023-04-12T07:52:23;21.00;60.30
8463;DHT22;4268;52.506;13.462;2023-04-12T07:54:49;20.60;60.40
8463;DHT22;4268;52.506;13.462;2023-04-12T07:57:14;20.60;60.00
8463;DHT22;4268;52.506;13.462;2023-04-12T07:59:40;19.50;60.30
8463;DHT22;4268;52.506;13.462;2023-04-12T08:02:06;19.00;62.10
8463;DHT22;4268;52.506;13.462;2023-04-12T08:04:31;18.90;62.70
8463;DHT22;4268;52.506;13.462;2023-04-12T08:06:58;18.30;62.70
8463;DHT22;4268;52.506;13.462;2023-04-12T08:09:24;17.90;64.40
8463;DHT22;4268;52.506;13.462;2023-04-12T08:11:50;17.50;65.10
8463;DHT22;4268;52.506;13.462;2023-04-12T08:14:15;17.00;65.40
8463;DHT22;4268;52.506;13.462;2023-04-12T08:16:41;16.40;65.50
8463;DHT22;4268;52.506;13.462;2023-04-12T08:19:07;16.20;66.60
8463;DHT22;4268;52.506;13.462;2023-04-12T08:21:33;15.70;67.90
8463;DHT22;4268;52.506;13.462;2023-04-12T08:23:58;15.70;68.50
8463;DHT22;4268;52.506;13.462;2023-04-12T08:26:24;15.20;68.80
8463;DHT22;4268;52.506;13.462;2023-04-12T08:28:51;15.20;69.90
8463;DHT22;4268;52.506;13.462;2023-04-12T08:31:17;15.10;69.90
8463;DHT22;4268;52.506;13.462;2023-04-12T08:33:43;14.90;69.30
8463;DHT22;4268;52.506;13.462;2023-04-12T08:36:08;14.70;68.70
8463;DHT22;4268;52.506;13.462;2023-04-12T08:38:36;14.40;69.50
8463;DHT22;4268;52.506;13.462;2023-04-12T08:41:03;14.20;69.70
8463;DHT22;4268;52.506;13.462;2023-04-12T08:43:29;14.10;70.40
8463;DHT22;4268;52.506;13.462;2023-04-12T08:45:58;14.00;70.20
8463;DHT22;4268;52.506;13.462;2023-04-12T08:48:26;13.90;69.30
8463;DHT22;4268;52.506;13.462;2023-04-12T08:50:52;13.70;70.30
8463;DHT22;4268;52.506;13.462;2023-04-12T08:53:18;13.30;71.10
8463;DHT22;4268;52.506;13.462;2023-04-12T08:55:44;13.00;71.20
8463;DHT22;4268;52.506;13.462;2023-04-12T08:58:13;12.80;71.40
8463;DHT22;4268;52.506;13.462;2023-04-12T09:00:40;12.70;72.40
8463;DHT22;4268;52.506;13.462;2023-04-12T09:03:06;12.70;72.30
8463;DHT22;4268;52.506;13.462;2023-04-12T09:05:32;12.70;71.50
8463;DHT22;4268;52.506;13.462;2023-04-12T09:07:57;12.60;71.90
8463;DHT22;4268;52.506;13.462;2023-04-12T09:10:36;12.50;72.50
8463;DHT22;4268;52.506;13.462;2023-04-12T09:13:03;12.50;72.00
8463;DHT22;4268;52.506;13.462;2023-04-12T09:15:29;12.50;72.40
8463;DHT22;4268;52.506;13.462;2023-04-12T09:18:10;12.40;71.00
8463;DHT22;4268;52.506;13.462;2023-04-12T09:20:38;12.50;71.10
8463;DHT22;4268;52.506;13.462;2023-04-12T09:23:20;12.60;71.10
8463;DHT22;4268;52.506;13.462;2023-04-12T09:25:47;12.70;70.50
8463;DHT22;4268;52.506;13.462;2023-04-12T09:28:32;12.70;69.20
8463;DHT22;4268;52.506;13.462;2023-04-12T09:30:58;12.70;68.90
8463;DHT22;4268;52.506;13.462;2023-04-12T09:33:36;12.70;69.40
8463;DHT22;4268;52.506;13.462;2023-04-12T09:36:03;12.80;69.50
8463;DHT22;4268;52.506;13.462;2023-04-12T09:38:29;12.80;69.50
8463;DHT22;4268;52.506;13.462;2023-04-12T09:40:55;12.90;67.60
8463;DHT22;4268;52.506;13.462;2023-04-12T09:43:39;12.90;66.50
8463;DHT22;4268;52.506;13.462;2023-04-12T09:46:12;13.00;66.80
8463;DHT22;4268;52.506;13.462;2023-04-12T09:48:39;13.00;66.10
8463;DHT22;4268;52.506;13.462;2023-04-12T09:51:05;13.10;65.40
8463;DHT22;4268;52.506;13.462;2023-04-12T09:53:33;13.20;65.60
8463;DHT22;4268;52.506;13.462;2023-04-12T09:56:01;13.30;65.40
8463;DHT22;4268;52.506;13.462;2023-04-12T09:58:27;13.10;65.50
8463;DHT22;4268;52.506;13.462;2023-04-12T10:00:55;13.30;65.60
8463;DHT22;4268;52.506;13.462;2023-04-12T10:03:22;13.20;64.10
8463;DHT22;4268;52.506;13.462;2023-04-12T10:05:48;13.20;64.80
8463;DHT22;4268;52.506;13.462;2023-04-12T10:08:14;13.20;65.20
8463;DHT22;4268;52.506;13.462;2023-04-12T10:10:39;13.30;66.10
8463;DHT22;4268;52.506;13.462;2023-04-12T10:13:05;13.30;66.10
8463;DHT22;4268;52.506;13.462;2023-04-12T10:15:31;13.40;66.60
8463;DHT22;4268;52.506;13.462;2023-04-12T10:17:59;13.50;65.30
8463;DHT22;4268;52.506;13.462;2023-04-12T10:20:26;13.60;64.50
8463;DHT22;4268;52.506;13.462;2023-04-12T10:22:52;13.70;64.80
8463;DHT22;4268;52.506;13.462;2023-04-12T10:25:22;13.70;65.20
8463;DHT22;4268;52.506;13.462;2023-04-12T10:27:49;13.80;65.90
8463;DHT22;4268;52.506;13.462;2023-04-12T10:32:43;13.80;63.10
8463;DHT22;4268;52.506;13.462;2023-04-12T10:35:09;13.80;64.70
8463;DHT22;4268;52.506;13.462;2023-04-12T10:40:29;13.90;64.10
8463;DHT22;4268;52.506;13.462;2023-04-12T10:45:49;14.10;64.20
8463;DHT22;4268;52.506;13.462;2023-04-12T10:48:51;14.10;63.00
8463;DHT22;4268;52.506;13.462;2023-04-12T10:51:22;14.10;63.30
8463;DHT22;4268;52.506;13.462;2023-04-12T10:53:50;14.20;63.30
8463;DHT22;4268;52.506;13.462;2023-04-12T10:58:57;14.20;62.70
8463;DHT22;4268;52.506;13.462;2023-04-12T11:01:23;14.20;63.50
8463;DHT22;4268;52.506;13.462;2023-04-12T11:04:12;14.20;62.60
8463;DHT22;4268;52.506;13.462;2023-04-12T11:12:35;14.40;62.80
8463;DHT22;4268;52.506;13.462;2023-04-12T11:14:42;14.50;63.60
8463;DHT22;4268;52.506;13.462;2023-04-12T11:19:38;14.50;62.40
8463;DHT22;4268;52.506;13.462;2023-04-12T11:22:08;14.50;61.00
8463;DHT22;4268;52.506;13.462;2023-04-12T11:24:48;14.60;61.40
8463;DHT22;4268;52.506;13.462;2023-04-12T11:27:15;14.70;62.70
8463;DHT22;4268;52.506;13.462;2023-04-12T11:29:44;14.80;62.00
8463;DHT22;4268;52.506;13.462;2023-04-12T11:32:12;14.80;61.60
8463;DHT22;4268;52.506;13.462;2023-04-12T11:34:39;14.80;62.10
8463;DHT22;4268;52.506;13.462;2023-04-12T11:37:06;14.90;62.60
8463;DHT22;4268;52.506;13.462;2023-04-12T11:39:39;15.10;62.70
8463;DHT22;4268;52.506;13.462;2023-04-12T11:42:05;15.10;61.70
8463;DHT22;4268;52.506;13.462;2023-04-12T11:44:33;15.10;61.90
8463;DHT22;4268;52.506;13.462;2023-04-12T11:46:59;15.20;61.10
8463;DHT22;4268;52.506;13.462;2023-04-12T11:49:26;15.20;61.30
8463;DHT22;4268;52.506;13.462;2023-04-12T11:52:04;15.20;61.00
8463;DHT22;4268;52.506;13.462;2023-04-12T11:54:30;15.10;61.50
8463;DHT22;4268;52.506;13.462;2023-04-12T11:56:57;15.20;61.20
8463;DHT22;4268;52.506;13.462;2023-04-12T11:59:31;15.30;60.90
8463;DHT22;4268;52.506;13.462;2023-04-12T12:01:58;15.50;61.20
8463;DHT22;4268;52.506;13.462;2023-04-12T12:04:24;15.70;60.50
8463;DHT22;4268;52.506;13.462;2023-04-12T12:06:50;15.60;59.80
8463;DHT22;4268;52.506;13.462;2023-04-12T12:09:16;15.60;59.60
8463;DHT22;4268;52.506;13.462;2023-04-12T12:11:41;15.20;59.20
8463;DHT22;4268;52.506;13.462;2023-04-12T12:14:07;15.20;59.20
8463;DHT22;4268;52.506;13.462;2023-04-12T12:16:33;15.30;59.50
8463;DHT22;4268;52.506;13.462;2023-04-12T12:19:03;15.40;59.40
8463;DHT22;4268;52.506;13.462;2023-04-12T12:21:29;15.50;58.80
8463;DHT22;4268;52.506;13.462;2023-04-12T12:23:56;15.40;59.20
8463;DHT22;4268;52.506;13.462;2023-04-12T12:26:27;15.30;59.30
8463;DHT22;4268;52.506;13.462;2023-04-12T12:28:56;15.30;59.60
8463;DHT22;4268;52.506;13.462;2023-04-12T12:31:23;15.40;59.70
8463;DHT22;4268;52.506;13.462;2023-04-12T12:33:54;15.50;59.50
8463;DHT22;4268;52.506;13.462;2023-04-12T12:36:19;15.60;59.60
8463;DHT22;4268;52.506;13.462;2023-04-12T12:38:45;15.80;59.60
8463;DHT22;4268;52.506;13.462;2023-04-12T12:43:51;16.30;59.90
8463;DHT22;4268;52.506;13.462;2023-04-12T12:46:18;16.10;58.60
8463;DHT22;4268;52.506;13.462;2023-04-12T12:48:45;16.10;58.90
8463;DHT22;4268;52.506;13.462;2023-04-12T12:51:12;16.10;58.90
8463;DHT22;4268;52.506;13.462;2023-04-12T12:53:39;16.10;59.60
8463;DHT22;4268;52.506;13.462;2023-04-12T12:56:07;16.10;59.00
8463;DHT22;4268;52.506;13.462;2023-04-12T12:58:34;16.00;59.70
8463;DHT22;4268;52.506;13.462;2023-04-12T13:01:00;16.00;59.40
8463;DHT22;4268;52.506;13.462;2023-04-12T13:03:26;15.80;58.60
8463;DHT22;4268;52.506;13.462;2023-04-12T13:05:51;15.70;59.40
8463;DHT22;4268;52.506;13.462;2023-04-12T13:08:17;15.70;59.60
8463;DHT22;4268;52.506;13.462;2023-04-12T13:10:43;15.80;58.80
8463;DHT22;4268;52.506;13.462;2023-04-12T13:13:08;15.80;58.30
8463;DHT22;4268;52.506;13.462;2023-04-12T13:15:34;15.80;58.10
8463;DHT22;4268;52.506;13.462;2023-04-12T13:18:00;15.90;58.80
8463;DHT22;4268;52.506;13.462;2023-04-12T13:20:25;16.00;59.40
8463;DHT22;4268;52.506;13.462;2023-04-12T13:22:52;16.10;59.50
8463;DHT22;4268;52.506;13.462;2023-04-12T13:25:18;16.10;59.20
8463;DHT22;4268;52.506;13.462;2023-04-12T13:27:47;16.20;60.10
8463;DHT22;4268;52.506;13.462;2023-04-12T13:30:13;16.20;58.60
8463;DHT22;4268;52.506;13.462;2023-04-12T13:32:39;16.20;58.80
8463;DHT22;4268;52.506;13.462;2023-04-12T13:35:05;16.10;58.60
8463;DHT22;4268;52.506;13.462;2023-04-12T13:37:31;15.90;58.40
8463;DHT22;4268;52.506;13.462;2023-04-12T13:39:57;15.90;59.10
8463;DHT22;4268;52.506;13.462;2023-04-12T13:42:22;15.90;59.40
8463;DHT22;4268;52.506;13.462;2023-04-12T13:44:48;15.90;59.80
8463;DHT22;4268;52.506;13.462;2023-04-12T13:47:15;16.00;59.90
8463;DHT22;4268;52.506;13.462;2023-04-12T13:49:40;16.00;59.60
8463;DHT22;4268;52.506;13.462;2023-04-12T13:52:06;16.10;59.80
8463;DHT22;4268;52.506;13.462;2023-04-12T13:54:32;16.20;59.70
8463;DHT22;4268;52.506;13.462;2023-04-12T13:56:57;16.20;60.00
8463;DHT22;4268;52.506;13.462;2023-04-12T13:59:24;16.10;59.60
8463;DHT22;4268;52.506;13.462;2023-04-12T14:01:50;15.90;59.50
8463;DHT22;4268;52.506;13.462;2023-04-12T14:04:15;15.80;59.80
8463;DHT22;4268;52.506;13.462;2023-04-12T14:06:41;15.90;59.80
8463;DHT22;4268;52.506;13.462;2023-04-12T14:09:07;15.70;59.90
8463;DHT22;4268;52.506;13.462;2023-04-12T14:11:46;15.70;60.40
8463;DHT22;4268;52.506;13.462;2023-04-12T14:14:12;15.60;60.50
8463;DHT22;4268;52.506;13.462;2023-04-12T14:16:37;15.60;61.90
8463;DHT22;4268;52.506;13.462;2023-04-12T14:19:03;15.50;61.70
8463;DHT22;4268;52.506;13.462;2023-04-12T14:21:28;15.30;62.30
8463;DHT22;4268;52.506;13.462;2023-04-12T14:23:54;15.30;61.70
8463;DHT22;4268;52.506;13.462;2023-04-12T14:26:20;15.20;61.80
8463;DHT22;4268;52.506;13.462;2023-04-12T14:28:45;15.10;61.90
8463;DHT22;4268;52.506;13.462;2023-04-12T14:31:14;15.00;61.80
8463;DHT22;4268;52.506;13.462;2023-04-12T14:33:40;15.10;62.70
8463;DHT22;4268;52.506;13.462;2023-04-12T14:36:06;15.10;62.80
8463;DHT22;4268;52.506;13.462;2023-04-12T14:38:32;15.10;62.90
8463;DHT22;4268;52.506;13.462;2023-04-12T14:40:58;15.00;63.30
8463;DHT22;4268;52.506;13.462;2023-04-12T14:43:24;15.00;63.50
8463;DHT22;4268;52.506;13.462;2023-04-12T14:45:49;15.00;64.30
8463;DHT22;4268;52.506;13.462;2023-04-12T14:48:15;14.90;64.20
8463;DHT22;4268;52.506;13.462;2023-04-12T14:50:40;14.90;64.20
8463;DHT22;4268;52.506;13.462;2023-04-12T14:53:06;14.90;64.20
8463;DHT22;4268;52.506;13.462;2023-04-12T14:55:34;14.80;64.00
8463;DHT22;4268;52.506;13.462;2023-04-12T14:57:59;14.80;63.70
8463;DHT22;4268;52.506;13.462;2023-04-12T15:00:25;14.60;63.80
8463;DHT22;4268;52.506;13.462;2023-04-12T15:02:53;14.60;63.80
8463;DHT22;4268;52.506;13.462;2023-04-12T15:05:19;14.50;63.90
8463;DHT22;4268;52.506;13.462;2023-04-12T15:07:44;14.50;64.10
8463;DHT22;4268;52.506;13.462;2023-04-12T15:10:10;14.50;63.70
8463;DHT22;4268;52.506;13.462;2023-04-12T15:12:38;14.50;64.10
8463;DHT22;4268;52.506;13.462;2023-04-12T15:15:04;14.40;65.10
8463;DHT22;4268;52.506;13.462;2023-04-12T15:17:31;14.30;67.00
8463;DHT22;4268;52.506;13.462;2023-04-12T15:19:58;14.20;68.00
8463;DHT22;4268;52.506;13.462;2023-04-12T15:22:24;14.20;69.40
8463;DHT22;4268;52.506;13.462;2023-04-12T15:24:51;14.20;69.60
8463;DHT22;4268;52.506;13.462;2023-04-12T15:27:16;14.20;71.10
8463;DHT22;4268;52.506;13.462;2023-04-12T15:29:42;14.10;72.40
8463;DHT22;4268;52.506;13.462;2023-04-12T15:32:08;13.90;73.90
8463;DHT22;4268;52.506;13.462;2023-04-12T15:34:34;13.80;77.00
8463;DHT22;4268;52.506;13.462;2023-04-12T15:36:59;13.60;78.80
8463;DHT22;4268;52.506;13.462;2023-04-12T15:39:25;13.50;79.90
8463;DHT22;4268;52.506;13.462;2023-04-12T15:41:51;13.60;80.70
8463;DHT22;4268;52.506;13.462;2023-04-12T15:44:16;13.50;82.20
8463;DHT22;4268;52.506;13.462;2023-04-12T15:46:42;13.30;84.00
8463;DHT22;4268;52.506;13.462;2023-04-12T15:49:08;13.20;84.70
8463;DHT22;4268;52.506;13.462;2023-04-12T15:51:34;13.00;85.90
8463;DHT22;4268;52.506;13.462;2023-04-12T15:54:00;13.00;87.50
8463;DHT22;4268;52.506;13.462;2023-04-12T15:56:26;13.00;87.60
8463;DHT22;4268;52.506;13.462;2023-04-12T15:58:53;12.90;88.30
8463;DHT22;4268;52.506;13.462;2023-04-12T16:01:20;12.80;88.90
8463;DHT22;4268;52.506;13.462;2023-04-12T16:03:46;13.10;90.10
8463;DHT22;4268;52.506;13.462;2023-04-12T16:06:14;13.20;90.10
8463;DHT22;4268;52.506;13.462;2023-04-12T16:08:45;13.20;90.50
8463;DHT22;4268;52.506;13.462;2023-04-12T16:11:13;13.10;91.60
8463;DHT22;4268;52.506;13.462;2023-04-12T16:13:38;13.00;92.50
8463;DHT22;4268;52.506;13.462;2023-04-12T16:16:06;12.80;93.30
8463;DHT22;4268;52.506;13.462;2023-04-12T16:18:32;12.70;93.60
8463;DHT22;4268;52.506;13.462;2023-04-12T16:20:57;12.60;94.60